createdAt,value
2023-03-24T00:00:28.398Z,75705.13
2023-03-24T00:03:17.627Z,75719.31
2023-03-24T00:05:45.187Z,75721.34
2023-03-24T00:08:12.186Z,75729.47
2023-03-24T00:10:40.460Z,75733.50
2023-03-24T00:13:07.398Z,75737.56
2023-03-24T00:15:36.535Z,75733.50
2023-03-24T00:18:04.391Z,75733.50
2023-03-24T00:20:33.147Z,75731.47
2023-03-24T00:23:00.144Z,75721.34
2023-03-24T00:25:36.473Z,75727.44
2023-03-24T00:28:05.982Z,75733.50
2023-03-24T00:30:35.158Z,75741.63
2023-03-24T00:33:02.536Z,75753.78
2023-03-24T00:35:30.017Z,75772.00
2023-03-24T00:37:57.381Z,75778.09
2023-03-24T00:40:25.089Z,75782.16
2023-03-24T00:42:52.961Z,75790.25
2023-03-24T00:45:23.573Z,75786.19
2023-03-24T00:47:54.669Z,75798.38
2023-03-24T00:50:26.638Z,75798.38
2023-03-24T00:52:54.790Z,75802.41
2023-03-24T00:55:23.121Z,75810.53
2023-03-24T00:57:51.237Z,75806.47
2023-03-24T01:00:25.373Z,75818.63
2023-03-24T01:02:55.958Z,75824.72
2023-03-24T01:05:31.221Z,75822.69
2023-03-24T01:08:03.769Z,75830.78
2023-03-24T01:10:53.183Z,75844.97
2023-03-24T01:13:28.857Z,75842.94
2023-03-24T01:15:57.607Z,75855.09
2023-03-24T01:18:24.523Z,75855.09
2023-03-24T01:20:53.412Z,75861.19
2023-03-24T01:23:23.905Z,75863.22
2023-03-24T01:25:52.533Z,75865.25
2023-03-24T01:28:24.735Z,75875.38
2023-03-24T01:30:53.246Z,75875.38
2023-03-24T01:33:21.525Z,75883.47
2023-03-24T01:35:49.444Z,75891.59
2023-03-24T01:38:16.571Z,75891.59
2023-03-24T01:40:47.346Z,75895.66
2023-03-24T01:43:21.983Z,75895.66
2023-03-24T01:45:57.916Z,75899.69
2023-03-24T01:48:41.652Z,75903.75
2023-03-24T01:51:14.933Z,75905.78
2023-03-24T01:53:59.617Z,75915.91
2023-03-24T01:56:31.269Z,75915.91
2023-03-24T01:59:02.696Z,75919.97
2023-03-24T02:02:03.514Z,75924.00
2023-03-24T02:04:44.973Z,75930.09
2023-03-24T02:07:31.227Z,75940.22
2023-03-24T02:09:58.206Z,75948.34
2023-03-24T02:12:25.544Z,75948.34
2023-03-24T02:14:53.800Z,75956.44
2023-03-24T02:18:06.169Z,75956.44
2023-03-24T02:20:56.110Z,75960.50
2023-03-24T02:23:52.052Z,75960.50
2023-03-24T02:26:28.412Z,75960.50
2023-03-24T02:29:17.236Z,75960.50
2023-03-24T02:31:59.510Z,75964.56
2023-03-24T02:35:02.723Z,75968.59
2023-03-24T02:37:39.417Z,75968.59
2023-03-24T02:40:15.380Z,75974.69
2023-03-24T02:42:49.020Z,75976.72
2023-03-24T02:45:29.908Z,75984.81
2023-03-24T02:48:34.061Z,75980.75
2023-03-24T02:51:42.349Z,75984.81
2023-03-24T02:54:16.922Z,75984.81
2023-03-24T02:56:55.666Z,75988.88
2023-03-24T02:59:57.443Z,75988.88
2023-03-24T03:03:13.092Z,75992.94
2023-03-24T03:05:47.606Z,75996.97
2023-03-24T03:08:21.148Z,75996.97
2023-03-24T03:10:51.051Z,76001.03
2023-03-24T03:13:42.612Z,76013.19
2023-03-24T03:16:16.311Z,76017.25
2023-03-24T03:18:51.710Z,76021.31
2023-03-24T03:21:24.085Z,76029.41
2023-03-24T03:24:11.562Z,76033.47
2023-03-24T03:26:40.234Z,76041.56
2023-03-24T03:29:18.939Z,76043.59
2023-03-24T03:32:07.654Z,76049.69
2023-03-24T03:34:38.327Z,76045.63
2023-03-24T03:37:21.540Z,76037.50
2023-03-24T03:39:55.219Z,76039.53
2023-03-24T03:42:22.955Z,76041.56
2023-03-24T03:44:50.908Z,76037.50
2023-03-24T03:47:19.088Z,76045.63
2023-03-24T03:49:46.258Z,76037.50
2023-03-24T03:52:14.161Z,76047.66
2023-03-24T03:54:43.168Z,76041.56
2023-03-24T03:57:12.671Z,76041.56
2023-03-24T04:00:11.865Z,76041.56
2023-03-24T04:02:56.357Z,76047.66
2023-03-24T04:05:50.409Z,76047.66
2023-03-24T04:08:46.690Z,76057.78
2023-03-24T04:11:36.219Z,76051.69
2023-03-24T04:14:41.613Z,76057.78
2023-03-24T04:17:48.133Z,76057.78
2023-03-24T04:20:38.317Z,76057.78
2023-03-24T04:23:34.296Z,76049.69
2023-03-24T04:26:26.417Z,76053.72
2023-03-24T04:29:34.810Z,76053.72
2023-03-24T04:32:19.558Z,76053.72
2023-03-24T04:34:56.072Z,76059.81
2023-03-24T04:37:50.034Z,76051.69
2023-03-24T04:40:23.881Z,76053.72
2023-03-24T04:42:55.148Z,76051.69
2023-03-24T04:45:28.492Z,76053.72
2023-03-24T04:48:17.714Z,76045.63
2023-03-24T04:51:12.519Z,76041.56
2023-03-24T04:53:58.295Z,76037.50
2023-03-24T04:56:47.892Z,76041.56
2023-03-24T04:59:34.286Z,76027.38
2023-03-24T05:02:03.935Z,76017.25
2023-03-24T05:04:49.510Z,76005.09
2023-03-24T05:07:21.425Z,75996.97
2023-03-24T05:09:52.346Z,75994.94
2023-03-24T05:12:19.573Z,75986.84
2023-03-24T05:15:07.051Z,75974.69
2023-03-24T05:17:35.688Z,75970.63
2023-03-24T05:20:06.907Z,75956.44
2023-03-24T05:22:34.277Z,75944.28
2023-03-24T05:25:01.352Z,75940.22
2023-03-24T05:27:28.812Z,75930.09
2023-03-24T05:29:55.940Z,75911.84
2023-03-24T05:32:27.465Z,75905.78
2023-03-24T05:34:55.129Z,75891.59
2023-03-24T05:37:29.863Z,75879.44
2023-03-24T05:39:56.995Z,75871.31
2023-03-24T05:42:38.464Z,75851.06
2023-03-24T05:45:06.550Z,75838.91
2023-03-24T05:47:34.202Z,75830.78
2023-03-24T05:50:01.206Z,75822.69
2023-03-24T05:52:31.676Z,75810.53
2023-03-24T05:55:11.741Z,75804.44
2023-03-24T05:57:40.661Z,75798.38
2023-03-24T06:00:26.648Z,75788.22
2023-03-24T06:03:00.806Z,75778.09
2023-03-24T06:05:38.700Z,75765.94
2023-03-24T06:08:06.017Z,75757.81
2023-03-24T06:10:36.936Z,75749.72
2023-03-24T06:13:04.911Z,75739.59
2023-03-24T06:15:33.999Z,75733.50
2023-03-24T06:18:21.660Z,75723.38
2023-03-24T06:20:50.790Z,75711.22
2023-03-24T06:23:25.982Z,75709.19
2023-03-24T06:26:09.155Z,75697.03
2023-03-24T06:28:39.838Z,75692.97
2023-03-24T06:31:20.487Z,75680.81
2023-03-24T06:33:51.691Z,75670.69
2023-03-24T06:36:19.517Z,75656.50
2023-03-24T06:38:47.102Z,75648.41
2023-03-24T06:41:18.268Z,75640.28
2023-03-24T06:43:47.084Z,75632.19
2023-03-24T06:46:15.152Z,75628.13
2023-03-24T06:48:46.956Z,75615.97
2023-03-24T06:51:13.958Z,75609.88
2023-03-24T06:53:44.061Z,75599.75
2023-03-24T06:56:16.621Z,75595.69
2023-03-24T06:58:48.086Z,75591.66
2023-03-24T07:01:18.937Z,75579.50
2023-03-24T07:04:21.816Z,75603.81
2023-03-24T07:07:19.574Z,75575.44
2023-03-24T07:10:10.720Z,75573.41
2023-03-24T07:12:38.257Z,75571.38
2023-03-24T07:15:07.447Z,75575.44
2023-03-24T07:17:35.080Z,75575.44
2023-03-24T07:20:16.637Z,75571.38
2023-03-24T07:22:56.803Z,75555.19
2023-03-24T07:25:27.040Z,75559.22
2023-03-24T07:28:14.261Z,75569.34
2023-03-24T07:30:41.531Z,75567.34
2023-03-24T07:33:12.729Z,75555.19
2023-03-24T07:35:43.026Z,75551.13
2023-03-24T07:38:10.744Z,75538.97
2023-03-24T07:40:38.516Z,75536.94
2023-03-24T07:43:06.263Z,75534.91
2023-03-24T07:45:47.231Z,75538.97
2023-03-24T07:48:14.773Z,75547.06
2023-03-24T07:50:42.157Z,75538.97
2023-03-24T07:53:41.527Z,75547.06
2023-03-24T07:56:09.039Z,75547.06
2023-03-24T07:58:41.405Z,75534.91
2023-03-24T08:01:25.997Z,75553.16
2023-03-24T08:03:55.236Z,75526.81
2023-03-24T08:06:46.120Z,75534.91
2023-03-24T08:09:14.794Z,75524.78
2023-03-24T08:11:42.396Z,75514.66
2023-03-24T08:14:09.590Z,75514.66
2023-03-24T08:16:39.040Z,75516.66
2023-03-24T08:19:06.510Z,75512.63
2023-03-24T08:21:34.207Z,75504.50
2023-03-24T08:24:01.153Z,75488.31
2023-03-24T08:26:29.179Z,75482.22
2023-03-24T08:28:56.954Z,75474.13
2023-03-24T08:31:24.183Z,75457.91
2023-03-24T08:33:51.291Z,75449.81
2023-03-24T08:36:18.647Z,75445.75
2023-03-24T08:38:48.149Z,75429.53
2023-03-24T08:41:16.828Z,75457.91
2023-03-24T08:43:44.541Z,75437.63
2023-03-24T08:46:13.906Z,75441.69
2023-03-24T08:48:41.468Z,75445.75
2023-03-24T08:51:16.589Z,75441.69
2023-03-24T08:53:44.078Z,75445.75
2023-03-24T08:56:11.588Z,75447.78
2023-03-24T08:58:38.481Z,75445.75
2023-03-24T09:01:06.142Z,75433.59
2023-03-24T09:03:33.113Z,75409.28
2023-03-24T09:06:00.582Z,75393.06
2023-03-24T09:08:28.080Z,75384.97
2023-03-24T09:10:56.517Z,75356.59
2023-03-24T09:13:23.960Z,75320.13
2023-03-24T09:15:54.209Z,75283.63
2023-03-24T09:18:22.089Z,75253.25
2023-03-24T09:20:50.155Z,75222.84
2023-03-24T09:23:18.005Z,75214.75
2023-03-24T09:25:46.047Z,75194.47
2023-03-24T09:28:15.158Z,75174.22
2023-03-24T09:30:43.626Z,75168.13
2023-03-24T09:33:11.704Z,75155.97
2023-03-24T09:35:39.067Z,75162.06
2023-03-24T09:38:06.239Z,75129.63
2023-03-24T09:40:37.824Z,75087.09
2023-03-24T09:43:28.078Z,75058.72
2023-03-24T09:45:58.859Z,75020.22
2023-03-24T09:48:31.598Z,75004.00
2023-03-24T09:51:29.189Z,74959.44
2023-03-24T09:54:08.252Z,74971.59
2023-03-24T09:56:39.093Z,74955.38
2023-03-24T09:59:12.595Z,74939.19
2023-03-24T10:01:39.964Z,74918.91
2023-03-24T10:04:21.340Z,74898.66
2023-03-24T10:06:57.349Z,74886.50
2023-03-24T10:09:31.020Z,74874.34
2023-03-24T10:12:33.518Z,74858.13
2023-03-24T10:15:16.158Z,74862.19
2023-03-24T10:18:06.802Z,74870.28
2023-03-24T10:20:41.032Z,74882.44
2023-03-24T10:23:23.167Z,74882.44
2023-03-24T10:25:58.909Z,74922.97
2023-03-24T10:28:43.170Z,74939.19
2023-03-24T10:31:13.810Z,74949.31
2023-03-24T10:33:45.875Z,74963.50
2023-03-24T10:36:21.435Z,74975.66
2023-03-24T10:38:49.240Z,74979.69
2023-03-24T10:41:25.966Z,74965.53
2023-03-24T10:43:56.469Z,74963.50
2023-03-24T10:46:30.469Z,74959.44
2023-03-24T10:49:17.534Z,74957.41
2023-03-24T10:51:50.700Z,74955.38
2023-03-24T10:54:22.171Z,74959.44
2023-03-24T10:56:58.990Z,74967.53
2023-03-24T10:59:27.454Z,74959.44
2023-03-24T11:02:38.274Z,74955.38
2023-03-24T11:05:17.060Z,74945.25
2023-03-24T11:07:47.030Z,74943.22
2023-03-24T11:10:17.373Z,74935.13
2023-03-24T11:12:53.587Z,74947.28
2023-03-24T11:15:29.426Z,74943.22
2023-03-24T11:18:08.548Z,74947.28
2023-03-24T11:20:39.327Z,74947.28
2023-03-24T11:23:47.686Z,74949.31
2023-03-24T11:26:28.538Z,74951.34
2023-03-24T11:29:02.753Z,74941.19
2023-03-24T11:31:39.254Z,74933.09
2023-03-24T11:34:42.460Z,74939.19
2023-03-24T11:37:16.133Z,74927.03
2023-03-24T11:39:44.347Z,74914.88
2023-03-24T11:42:12.329Z,74906.75
2023-03-24T11:44:39.478Z,74906.75
2023-03-24T11:47:17.057Z,74890.56
2023-03-24T11:50:12.158Z,74890.56
2023-03-24T11:53:07.944Z,74894.59
2023-03-24T11:56:03.216Z,74886.50
2023-03-24T11:58:39.858Z,74874.34
2023-03-24T12:01:12.024Z,74866.25
2023-03-24T12:04:04.022Z,74856.09
2023-03-24T12:06:40.047Z,74845.97
2023-03-24T12:09:14.993Z,74837.88
2023-03-24T12:12:26.608Z,74817.63
2023-03-24T12:15:29.426Z,74799.38
2023-03-24T12:18:24.240Z,74781.16
2023-03-24T12:21:21.711Z,74744.69
2023-03-24T12:24:02.389Z,74724.41
2023-03-24T12:26:34.745Z,74696.06
2023-03-24T12:29:38.389Z,74663.63
2023-03-24T12:32:24.381Z,74615.00
2023-03-24T12:35:11.518Z,74582.59
2023-03-24T12:38:25.839Z,74546.13
2023-03-24T12:40:57.235Z,74517.78
2023-03-24T12:43:58.576Z,74507.63
2023-03-24T12:46:56.446Z,74489.41
2023-03-24T12:50:02.587Z,74477.25
2023-03-24T12:52:39.081Z,74469.16
2023-03-24T12:55:21.128Z,74465.09
2023-03-24T12:57:55.409Z,74475.22
2023-03-24T13:00:28.601Z,74481.31
2023-03-24T13:03:00.007Z,74501.56
2023-03-24T13:05:31.982Z,74513.72
2023-03-24T13:08:02.772Z,74521.81
2023-03-24T13:10:40.569Z,74513.72
2023-03-24T13:13:13.439Z,74513.72
2023-03-24T13:15:48.670Z,74505.63
2023-03-24T13:18:30.312Z,74477.25
2023-03-24T13:21:00.391Z,74473.19
2023-03-24T13:23:55.220Z,74457.00
2023-03-24T13:26:54.191Z,74469.16
2023-03-24T13:29:38.376Z,74477.25
2023-03-24T13:32:22.412Z,74465.09
2023-03-24T13:35:04.912Z,74465.09
2023-03-24T13:37:43.530Z,74461.03
2023-03-24T13:40:28.835Z,74471.19
2023-03-24T13:43:01.233Z,74471.19
2023-03-24T13:45:44.362Z,74471.19
2023-03-24T13:48:11.832Z,74473.19
2023-03-24T13:50:46.994Z,74469.16
2023-03-24T13:53:15.784Z,74463.06
2023-03-24T13:55:53.115Z,74444.84
2023-03-24T13:58:28.412Z,74434.72
2023-03-24T14:01:11.126Z,74430.66
2023-03-24T14:03:43.369Z,74412.44
2023-03-24T14:06:15.387Z,74404.31
2023-03-24T14:08:48.511Z,74396.22
2023-03-24T14:11:34.313Z,74400.28
2023-03-24T14:14:07.212Z,74392.16
2023-03-24T14:17:09.015Z,74392.16
2023-03-24T14:19:42.115Z,74371.91
2023-03-24T14:22:11.387Z,74384.06
2023-03-24T14:24:43.690Z,74386.09
2023-03-24T14:27:35.134Z,74384.06
2023-03-24T14:30:19.199Z,74380.00
2023-03-24T14:32:50.292Z,74367.84
2023-03-24T14:35:26.501Z,74367.84
2023-03-24T14:37:56.973Z,74367.84
2023-03-24T14:40:33.551Z,74363.81
2023-03-24T14:43:18.214Z,74375.97
2023-03-24T14:46:00.979Z,74371.91
2023-03-24T14:48:34.051Z,74384.06
2023-03-24T14:51:08.898Z,74396.22
2023-03-24T14:53:38.609Z,74398.25
2023-03-24T14:56:16.241Z,74406.34
2023-03-24T14:58:48.814Z,74412.44
2023-03-24T15:01:17.826Z,74420.53
2023-03-24T15:03:49.841Z,74414.44
2023-03-24T15:06:19.679Z,74420.53
2023-03-24T15:08:55.580Z,74412.44
2023-03-24T15:11:30.132Z,74414.44
2023-03-24T15:13:57.565Z,74410.41
2023-03-24T15:16:24.778Z,74408.38
2023-03-24T15:19:19.503Z,74408.38
2023-03-24T15:22:05.905Z,74418.50
2023-03-24T15:24:36.214Z,74416.47
2023-03-24T15:27:09.423Z,74428.63
2023-03-24T15:29:41.675Z,74436.72
2023-03-24T15:32:32.070Z,74444.84
2023-03-24T15:35:05.867Z,74452.94
2023-03-24T15:37:41.421Z,74463.06
2023-03-24T15:40:27.170Z,74461.03
2023-03-24T15:42:57.338Z,74471.19
2023-03-24T15:45:27.495Z,74469.16
2023-03-24T15:47:56.149Z,74473.19
2023-03-24T15:50:28.883Z,74479.28
2023-03-24T15:53:06.564Z,74481.31
2023-03-24T15:55:36.716Z,74493.47
2023-03-24T15:58:23.905Z,74493.47
2023-03-24T16:00:54.678Z,74499.53
2023-03-24T16:03:26.598Z,74505.63
2023-03-24T16:05:56.446Z,74513.72
2023-03-24T16:08:36.169Z,74525.88
2023-03-24T16:11:11.651Z,74529.94
2023-03-24T16:13:45.010Z,74533.97
2023-03-24T16:16:15.143Z,74546.13
2023-03-24T16:18:45.327Z,74546.13
2023-03-24T16:21:24.243Z,74548.16
2023-03-24T16:23:53.473Z,74554.22
2023-03-24T16:26:23.899Z,74566.41
2023-03-24T16:28:52.626Z,74570.44
2023-03-24T16:31:30.995Z,74574.50
2023-03-24T16:33:59.417Z,74582.59
2023-03-24T16:36:26.992Z,74582.59
2023-03-24T16:38:56.321Z,74588.69
2023-03-24T16:41:24.107Z,74594.75
2023-03-24T16:43:53.190Z,74606.91
2023-03-24T16:46:26.460Z,74615.00
2023-03-24T16:48:54.107Z,74615.00
2023-03-24T16:51:21.688Z,74639.31
2023-03-24T16:53:49.159Z,74651.47
2023-03-24T16:56:18.431Z,74665.66
2023-03-24T16:58:48.930Z,74671.75
2023-03-24T17:01:26.542Z,74679.84
2023-03-24T17:03:59.591Z,74679.84
2023-03-24T17:06:29.196Z,74700.09
2023-03-24T17:08:56.850Z,74724.41
2023-03-24T17:11:30.494Z,74744.69
2023-03-24T17:14:08.960Z,74762.91
2023-03-24T17:16:38.374Z,74777.09
2023-03-24T17:19:06.642Z,74821.66
2023-03-24T17:21:40.671Z,74874.34
2023-03-24T17:24:10.682Z,74918.91
2023-03-24T17:26:38.429Z,74959.44
2023-03-24T17:29:06.483Z,74995.91
2023-03-24T17:31:33.904Z,75020.22
2023-03-24T17:34:08.497Z,75034.41
2023-03-24T17:36:49.663Z,75056.69
2023-03-24T17:39:18.093Z,75068.84
2023-03-24T17:41:45.242Z,75076.97
2023-03-24T17:44:12.570Z,75093.16
2023-03-24T17:46:39.638Z,75099.25
2023-03-24T17:49:07.051Z,75101.28
2023-03-24T17:51:33.992Z,75105.31
2023-03-24T17:54:01.451Z,75111.41
2023-03-24T17:56:28.690Z,75119.50
2023-03-24T17:59:03.484Z,75125.59
2023-03-24T18:01:30.596Z,75129.63
2023-03-24T18:03:58.182Z,75141.78
2023-03-24T18:06:25.334Z,75145.84
2023-03-24T18:08:52.704Z,75149.91
2023-03-24T18:11:20.033Z,75145.84
2023-03-24T18:13:47.305Z,75149.91
2023-03-24T18:16:21.202Z,75158.00
2023-03-24T18:18:51.136Z,75153.94
2023-03-24T18:21:19.300Z,75160.03
2023-03-24T18:23:47.122Z,75162.06
2023-03-24T18:26:16.402Z,75174.22
2023-03-24T18:28:48.228Z,75170.16
2023-03-24T18:31:18.947Z,75162.06
2023-03-24T18:33:47.946Z,75153.94
2023-03-24T18:36:16.841Z,75151.94
2023-03-24T18:38:44.445Z,75147.88
2023-03-24T18:41:13.036Z,75149.91
2023-03-24T18:43:47.645Z,75149.91
2023-03-24T18:46:15.476Z,75153.94
2023-03-24T18:48:43.270Z,75170.16
2023-03-24T18:51:11.457Z,75174.22
2023-03-24T18:53:38.961Z,75178.28
2023-03-24T18:56:08.426Z,75186.38
2023-03-24T18:58:38.272Z,75182.31
2023-03-24T19:01:11.420Z,75178.28
2023-03-24T19:03:41.063Z,75178.28
2023-03-24T19:06:10.377Z,75174.22
2023-03-24T19:08:41.157Z,75170.16
2023-03-24T19:11:09.980Z,75178.28
2023-03-24T19:13:37.665Z,75174.22
2023-03-24T19:16:05.583Z,75178.28
2023-03-24T19:18:32.908Z,75176.25
2023-03-24T19:21:02.096Z,75176.25
2023-03-24T19:23:30.558Z,75174.22
2023-03-24T19:25:57.681Z,75178.28
2023-03-24T19:28:29.253Z,75174.22
2023-03-24T19:30:57.362Z,75170.16
2023-03-24T19:33:25.624Z,75174.22
2023-03-24T19:35:52.931Z,75178.28
2023-03-24T19:38:24.335Z,75178.28
2023-03-24T19:40:53.891Z,75174.22
2023-03-24T19:43:22.914Z,75178.28
2023-03-24T19:45:51.793Z,75186.38
2023-03-24T19:48:19.272Z,75190.44
2023-03-24T19:50:46.678Z,75186.38
2023-03-24T19:53:14.027Z,75178.28
2023-03-24T19:55:40.994Z,75182.31
2023-03-24T19:58:08.495Z,75186.38
2023-03-24T20:00:36.023Z,75184.34
2023-03-24T20:03:03.430Z,75186.38
2023-03-24T20:05:30.890Z,75192.44
2023-03-24T20:08:00.043Z,75194.47
2023-03-24T20:10:27.879Z,75194.47
2023-03-24T20:12:56.204Z,75202.59
2023-03-24T20:15:24.417Z,75202.59
2023-03-24T20:17:52.606Z,75210.69
2023-03-24T20:20:20.223Z,75218.78
2023-03-24T20:22:49.686Z,75218.78
2023-03-24T20:25:19.219Z,75222.84
2023-03-24T20:27:47.896Z,75235.00
2023-03-24T20:30:17.712Z,75232.97
2023-03-24T20:32:45.910Z,75247.16
2023-03-24T20:35:12.963Z,75241.09
2023-03-24T20:37:40.252Z,75226.91
2023-03-24T20:40:09.836Z,75220.81
2023-03-24T20:42:38.359Z,75214.75
2023-03-24T20:45:07.347Z,75208.66
2023-03-24T20:47:35.810Z,75194.47
2023-03-24T20:50:03.674Z,75190.44
2023-03-24T20:52:32.625Z,75184.34
2023-03-24T20:55:01.611Z,75182.31
2023-03-24T20:57:31.398Z,75186.38
2023-03-24T20:59:58.713Z,75194.47
2023-03-24T21:02:26.257Z,75210.69
2023-03-24T21:04:53.340Z,75222.84
2023-03-24T21:07:20.585Z,75226.91
2023-03-24T21:09:47.676Z,75230.94
2023-03-24T21:12:15.062Z,75235.00
2023-03-24T21:14:42.506Z,75222.84
2023-03-24T21:17:09.814Z,75230.94
2023-03-24T21:19:37.230Z,75230.94
2023-03-24T21:22:04.506Z,75226.91
2023-03-24T21:24:31.560Z,75241.09
2023-03-24T21:27:00.149Z,75249.19
2023-03-24T21:29:27.163Z,75259.31
2023-03-24T21:31:54.653Z,75263.38
2023-03-24T21:34:21.804Z,75259.31
2023-03-24T21:36:49.708Z,75271.47
2023-03-24T21:39:17.224Z,75279.59
2023-03-24T21:41:44.595Z,75287.69
2023-03-24T21:44:11.664Z,75287.69
2023-03-24T21:46:38.867Z,75271.47
2023-03-24T21:49:06.342Z,75283.63
2023-03-24T21:51:34.737Z,75297.81
2023-03-24T21:54:03.593Z,75312.00
2023-03-24T21:56:32.806Z,75322.13
2023-03-24T21:59:00.758Z,75338.34
2023-03-24T22:01:28.170Z,75344.44
2023-03-24T22:03:55.928Z,75350.50
2023-03-24T22:06:23.549Z,75356.59
2023-03-24T22:08:53.180Z,75362.66
2023-03-24T22:11:20.627Z,75376.84
2023-03-24T22:13:47.639Z,75368.75
2023-03-24T22:16:15.051Z,75372.78
2023-03-24T22:18:42.416Z,75372.78
2023-03-24T22:21:11.154Z,75368.75
2023-03-24T22:23:40.510Z,75372.78
2023-03-24T22:26:14.146Z,75372.78
2023-03-24T22:28:43.523Z,75372.78
2023-03-24T22:31:13.747Z,75376.84
2023-03-24T22:33:41.047Z,75380.91
2023-03-24T22:36:09.277Z,75397.13
2023-03-24T22:38:36.816Z,75397.13
2023-03-24T22:41:07.076Z,75401.16
2023-03-24T22:43:35.669Z,75413.31
2023-03-24T22:46:03.751Z,75409.28
2023-03-24T22:48:31.367Z,75415.34
2023-03-24T22:50:58.801Z,75425.47
2023-03-24T22:53:25.860Z,75423.47
2023-03-24T22:55:53.718Z,75441.69
2023-03-24T22:58:21.366Z,75457.91
2023-03-24T23:00:50.187Z,75461.97
2023-03-24T23:03:17.224Z,75470.06
2023-03-24T23:05:46.258Z,75474.13
2023-03-24T23:08:15.484Z,75478.16
2023-03-24T23:10:44.761Z,75486.28
2023-03-24T23:13:12.563Z,75490.31
2023-03-24T23:15:42.518Z,75486.28
2023-03-24T23:18:10.466Z,75494.38
2023-03-24T23:20:38.028Z,75514.66
2023-03-24T23:23:06.997Z,75518.69
2023-03-24T23:25:40.109Z,75518.69
2023-03-24T23:28:07.242Z,75528.84
2023-03-24T23:30:34.601Z,75534.91
2023-03-24T23:33:03.592Z,75534.91
2023-03-24T23:35:33.161Z,75545.03
2023-03-24T23:38:02.298Z,75547.06
2023-03-24T23:40:29.608Z,75551.13
2023-03-24T23:42:56.492Z,75543.00
2023-03-24T23:45:23.888Z,75555.19
2023-03-24T23:47:51.814Z,75549.09
2023-03-24T23:50:20.595Z,75551.13
2023-03-24T23:52:48.282Z,75563.28
2023-03-24T23:55:18.154Z,75567.34
2023-03-24T23:57:46.358Z,75567.34
